createdAt,value
2018-04-07T00:00:55.733Z,8.33
2018-04-07T00:03:25.560Z,5.60
2018-04-07T00:05:54.971Z,5.40
2018-04-07T00:08:23.860Z,5.33
2018-04-07T00:10:52.716Z,7.60
2018-04-07T00:13:22.361Z,6.73
2018-04-07T00:15:51.216Z,7.30
2018-04-07T00:18:20.050Z,6.07
2018-04-07T00:20:49.437Z,7.33
2018-04-07T00:23:18.324Z,6.93
2018-04-07T00:25:47.176Z,6.90
2018-04-07T00:28:16.063Z,8.00
2018-04-07T00:30:44.940Z,7.67
2018-04-07T00:33:13.809Z,7.60
2018-04-07T00:35:42.696Z,9.60
2018-04-07T00:38:11.558Z,6.20
2018-04-07T00:40:40.395Z,7.83
2018-04-07T00:43:09.237Z,5.97
2018-04-07T00:45:38.104Z,8.53
2018-04-07T00:48:06.946Z,8.33
2018-04-07T00:50:35.812Z,7.27
2018-04-07T00:53:04.710Z,7.73
2018-04-07T00:55:33.566Z,11.80
2018-04-07T00:58:03.117Z,8.77
2018-04-07T01:00:31.999Z,8.73
2018-04-07T01:03:00.855Z,6.37
2018-04-07T01:05:30.271Z,8.07
2018-04-07T01:07:59.102Z,9.70
2018-04-07T01:10:27.933Z,8.37
2018-04-07T01:12:56.821Z,8.03
2018-04-07T01:15:25.675Z,8.33
2018-04-07T01:17:54.517Z,7.77
2018-04-07T01:20:24.311Z,7.80
2018-04-07T01:22:53.202Z,9.73
2018-04-07T01:25:22.087Z,9.20
2018-04-07T01:27:50.953Z,8.70
2018-04-07T01:30:19.863Z,9.47
2018-04-07T01:32:48.975Z,7.37
2018-04-07T01:35:17.880Z,8.97
2018-04-07T01:37:46.720Z,7.50
2018-04-07T01:40:15.575Z,7.83
2018-04-07T01:42:44.441Z,8.90
2018-04-07T01:45:13.286Z,7.47
2018-04-07T01:47:43.086Z,9.27
2018-04-07T01:50:16.456Z,7.20
2018-04-07T01:52:46.515Z,9.57
2018-04-07T01:55:15.835Z,7.87
2018-04-07T01:57:44.695Z,10.43
2018-04-07T02:00:14.329Z,7.93
2018-04-07T02:02:43.184Z,7.00
2018-04-07T02:05:12.020Z,8.13
2018-04-07T02:07:41.109Z,9.13
2018-04-07T02:10:09.990Z,11.00
2018-04-07T02:12:38.848Z,8.00
2018-04-07T02:15:07.700Z,9.10
2018-04-07T02:17:36.562Z,8.53
2018-04-07T02:20:05.660Z,8.00
2018-04-07T02:22:35.107Z,7.63
2018-04-07T02:25:03.993Z,8.73
2018-04-07T02:27:33.411Z,9.10
2018-04-07T02:30:02.926Z,8.00
2018-04-07T02:32:31.777Z,8.47
2018-04-07T02:35:00.610Z,8.03
2018-04-07T02:37:30.556Z,10.27
2018-04-07T02:39:59.444Z,8.67
2018-04-07T02:42:28.513Z,10.17
2018-04-07T02:44:57.386Z,8.33
2018-04-07T02:47:27.146Z,12.13
2018-04-07T02:49:56.001Z,8.00
2018-04-07T02:52:24.860Z,8.03
2018-04-07T02:54:54.646Z,9.43
2018-04-07T02:57:23.485Z,9.10
2018-04-07T02:59:52.332Z,7.80
2018-04-07T03:02:21.193Z,8.07
2018-04-07T03:04:50.099Z,9.60
2018-04-07T03:07:18.977Z,9.20
2018-04-07T03:09:47.851Z,8.20
2018-04-07T03:12:16.699Z,10.00
2018-04-07T03:14:45.539Z,8.23
2018-04-07T03:17:14.402Z,8.10
2018-04-07T03:19:43.241Z,9.33
2018-04-07T03:22:12.907Z,8.00
2018-04-07T03:24:45.055Z,6.60
2018-04-07T03:27:13.897Z,9.97
2018-04-07T03:29:43.625Z,6.80
2018-04-07T03:32:12.620Z,8.63
2018-04-07T03:34:41.777Z,9.07
2018-04-07T03:37:10.611Z,7.80
2018-04-07T03:39:39.485Z,7.37
2018-04-07T03:42:10.112Z,9.37
2018-04-07T03:44:38.979Z,7.77
2018-04-07T03:47:07.864Z,8.13
2018-04-07T03:49:36.719Z,10.53
2018-04-07T03:52:05.641Z,9.00
2018-04-07T03:54:34.509Z,11.70
2018-04-07T03:57:04.491Z,8.13
2018-04-07T03:59:33.344Z,8.60
2018-04-07T04:02:05.163Z,8.70
2018-04-07T04:04:34.051Z,7.83
2018-04-07T04:07:03.391Z,7.40
2018-04-07T04:09:32.299Z,8.77
2018-04-07T04:12:01.211Z,8.53
2018-04-07T04:14:30.047Z,10.73
2018-04-07T04:16:58.913Z,9.03
2018-04-07T04:19:27.769Z,7.77
2018-04-07T04:21:56.639Z,10.53
2018-04-07T04:24:25.537Z,10.57
2018-04-07T04:26:54.385Z,9.20
2018-04-07T04:29:23.969Z,9.13
2018-04-07T04:31:52.879Z,9.63
2018-04-07T04:34:21.711Z,9.60
2018-04-07T04:36:50.581Z,9.17
2018-04-07T04:39:19.467Z,11.67
2018-04-07T04:41:48.335Z,9.67
2018-04-07T04:44:17.195Z,8.17
2018-04-07T04:46:46.092Z,8.37
2018-04-07T04:49:14.931Z,8.53
2018-04-07T04:51:44.629Z,8.97
2018-04-07T04:54:13.522Z,7.87
2018-04-07T04:56:42.360Z,8.83
2018-04-07T04:59:11.225Z,9.43
2018-04-07T05:01:40.063Z,8.50
2018-04-07T05:04:09.861Z,8.20
2018-04-07T05:06:38.731Z,8.20
2018-04-07T05:09:07.591Z,9.07
2018-04-07T05:11:36.428Z,8.87
2018-04-07T05:14:05.307Z,9.77
2018-04-07T05:16:34.988Z,10.17
2018-04-07T05:19:03.842Z,8.10
2018-04-07T05:21:33.387Z,8.43
2018-04-07T05:24:02.241Z,11.33
2018-04-07T05:26:31.097Z,9.10
2018-04-07T05:28:59.982Z,10.77
2018-04-07T05:31:30.285Z,10.57
2018-04-07T05:33:59.161Z,9.60
2018-04-07T05:36:28.647Z,8.43
2018-04-07T05:38:57.486Z,7.90
2018-04-07T05:41:26.352Z,9.73
2018-04-07T05:43:55.262Z,8.80
2018-04-07T05:46:24.142Z,9.90
2018-04-07T05:48:53.003Z,8.17
2018-04-07T05:51:22.184Z,9.23
2018-04-07T05:53:51.039Z,8.90
2018-04-07T05:56:19.905Z,10.00
2018-04-07T05:58:49.472Z,10.60
2018-04-07T06:01:18.326Z,9.80
2018-04-07T06:03:47.261Z,8.87
2018-04-07T06:06:16.120Z,10.63
2018-04-07T06:08:44.956Z,9.43
2018-04-07T06:11:13.824Z,8.00
2018-04-07T06:13:42.680Z,8.60
2018-04-07T06:16:11.860Z,9.97
2018-04-07T06:18:40.724Z,11.67
2018-04-07T06:21:09.580Z,8.70
2018-04-07T06:23:38.417Z,8.97
2018-04-07T06:26:07.298Z,8.87
2018-04-07T06:28:36.138Z,8.30
2018-04-07T06:31:05.988Z,9.77
2018-04-07T06:33:34.848Z,9.30
2018-04-07T06:36:03.700Z,11.17
2018-04-07T06:38:32.594Z,7.40
2018-04-07T06:41:02.041Z,8.27
2018-04-07T06:43:30.882Z,8.27
2018-04-07T06:45:59.720Z,9.37
2018-04-07T06:48:28.618Z,8.33
2018-04-07T06:50:57.490Z,8.07
2018-04-07T06:53:26.343Z,8.27
2018-04-07T06:55:55.249Z,8.90
2018-04-07T06:58:24.102Z,7.97
2018-04-07T07:00:53.856Z,9.60
2018-04-07T07:03:23.978Z,9.33
2018-04-07T07:05:52.830Z,8.87
2018-04-07T07:08:21.688Z,10.07
2018-04-07T07:10:50.523Z,9.00
2018-04-07T07:13:19.369Z,8.97
2018-04-07T07:15:48.491Z,10.27
2018-04-07T07:18:17.365Z,8.53
2018-04-07T07:20:46.246Z,11.70
2018-04-07T07:23:15.128Z,10.83
2018-04-07T07:25:43.975Z,8.13
2018-04-07T07:28:12.822Z,9.17
2018-04-07T07:30:42.426Z,11.73
2018-04-07T07:33:11.271Z,8.50
2018-04-07T07:35:40.984Z,10.23
2018-04-07T07:38:09.822Z,10.10
2018-04-07T07:40:38.697Z,8.87
2018-04-07T07:43:08.247Z,9.77
2018-04-07T07:45:37.096Z,10.20
2018-04-07T07:48:05.987Z,9.23
2018-04-07T07:50:34.833Z,9.27
2018-04-07T07:53:04.557Z,11.80
2018-04-07T07:55:33.415Z,10.07
2018-04-07T07:58:02.311Z,8.00
2018-04-07T08:00:31.662Z,9.53
2018-04-07T08:03:00.522Z,10.07
2018-04-07T08:05:30.037Z,11.13
2018-04-07T08:07:59.745Z,8.63
2018-04-07T08:10:28.657Z,8.30
2018-04-07T08:12:57.491Z,9.27
2018-04-07T08:15:26.371Z,11.20
2018-04-07T08:17:55.293Z,9.83
2018-04-07T08:20:24.139Z,11.40
2018-04-07T08:22:53.005Z,10.50
2018-04-07T08:25:22.596Z,8.80
2018-04-07T08:27:52.303Z,8.77
2018-04-07T08:30:21.243Z,7.37
2018-04-07T08:35:37.081Z,11.60
2018-04-07T08:38:06.006Z,10.03
2018-04-07T08:40:34.853Z,8.20
2018-04-07T08:43:03.755Z,9.03
2018-04-07T08:45:33.759Z,9.90
2018-04-07T08:48:02.631Z,9.00
2018-04-07T08:50:31.501Z,11.43
2018-04-07T08:53:00.813Z,10.73
2018-04-07T08:55:30.311Z,9.53
2018-04-07T08:57:59.200Z,8.27
2018-04-07T09:00:28.366Z,8.30
2018-04-07T09:02:57.199Z,8.43
2018-04-07T09:05:29.040Z,8.67
2018-04-07T09:07:58.149Z,10.63
2018-04-07T09:10:27.939Z,7.63
2018-04-07T09:12:57.075Z,8.33
2018-04-07T09:15:25.908Z,8.50
2018-04-07T09:17:54.790Z,6.67
2018-04-07T09:20:24.231Z,7.70
2018-04-07T09:22:53.068Z,7.83
2018-04-07T09:25:23.392Z,7.70
2018-04-07T09:27:52.280Z,8.17
2018-04-07T09:30:21.144Z,7.57
2018-04-07T09:32:50.264Z,7.23
2018-04-07T09:35:19.104Z,6.17
2018-04-07T09:37:47.938Z,7.43
2018-04-07T09:40:16.868Z,6.57
2018-04-07T09:42:45.737Z,5.13
2018-04-07T09:45:14.584Z,6.37
2018-04-07T09:47:44.292Z,6.00
2018-04-07T09:50:13.139Z,4.67
2018-04-07T09:52:42.576Z,7.27
2018-04-07T09:55:11.444Z,6.27
2018-04-07T09:57:40.282Z,5.60
2018-04-07T10:00:09.168Z,6.00
2018-04-07T10:02:38.058Z,7.17
2018-04-07T10:05:06.901Z,5.70
2018-04-07T10:07:35.748Z,4.60
2018-04-07T10:10:04.609Z,3.80
2018-04-07T10:12:33.452Z,4.70
2018-04-07T10:15:03.001Z,4.27
2018-04-07T10:17:31.867Z,4.03
2018-04-07T10:20:01.329Z,7.17
2018-04-07T10:22:31.076Z,6.90
2018-04-07T10:24:59.934Z,4.97
2018-04-07T10:27:29.079Z,5.40
2018-04-07T10:29:57.910Z,4.63
2018-04-07T10:32:26.775Z,5.17
2018-04-07T10:34:55.617Z,5.27
2018-04-07T10:37:25.073Z,4.57
2018-04-07T10:39:53.999Z,4.30
2018-04-07T10:42:23.839Z,7.97
2018-04-07T10:44:53.417Z,6.70
2018-04-07T10:47:22.989Z,8.47
2018-04-07T10:49:52.012Z,6.37
2018-04-07T10:52:20.865Z,6.33
2018-04-07T10:54:50.189Z,4.47
2018-04-07T10:57:19.051Z,7.57
2018-04-07T10:59:47.903Z,5.33
2018-04-07T11:02:16.807Z,3.77
2018-04-07T11:04:45.679Z,4.77
2018-04-07T11:07:15.139Z,6.23
2018-04-07T11:09:45.519Z,6.73
2018-04-07T11:12:14.372Z,5.70
2018-04-07T11:14:43.256Z,6.00
2018-04-07T11:17:12.239Z,5.70
2018-04-07T11:19:42.287Z,5.77
2018-04-07T11:22:11.307Z,6.10
2018-04-07T11:24:41.215Z,4.87
2018-04-07T11:27:10.076Z,3.57
2018-04-07T11:29:38.953Z,7.30
2018-04-07T11:32:07.976Z,21.73
2018-04-07T11:34:36.819Z,4.70
2018-04-07T11:37:05.712Z,7.60
2018-04-07T11:39:34.595Z,6.13
2018-04-07T11:42:04.919Z,7.00
2018-04-07T11:44:33.772Z,5.70
2018-04-07T11:47:03.133Z,5.40
2018-04-07T11:49:31.985Z,6.77
2018-04-07T11:52:00.915Z,4.03
2018-04-07T11:54:29.756Z,6.77
2018-04-07T11:56:58.600Z,4.97
2018-04-07T11:59:27.478Z,6.83
2018-04-07T12:01:57.296Z,6.53
2018-04-07T12:04:33.588Z,5.47
2018-04-07T12:07:03.038Z,6.33
2018-04-07T12:09:31.942Z,4.90
2018-04-07T12:12:00.767Z,5.33
2018-04-07T12:14:29.618Z,6.57
2018-04-07T12:16:58.928Z,6.67
2018-04-07T12:19:30.004Z,7.17
2018-04-07T12:21:58.884Z,7.10
2018-04-07T12:24:27.927Z,5.43
2018-04-07T12:26:56.776Z,3.90
2018-04-07T12:29:25.653Z,6.07
2018-04-07T12:31:54.484Z,3.20
2018-04-07T12:34:23.311Z,7.83
2018-04-07T12:36:52.172Z,4.87
2018-04-07T12:39:21.002Z,5.17
2018-04-07T12:41:49.840Z,3.43
2018-04-07T12:44:18.725Z,4.53
2018-04-07T12:46:47.592Z,5.77
2018-04-07T12:49:16.453Z,5.73
2018-04-07T12:51:45.308Z,6.83
2018-04-07T12:54:14.144Z,6.07
2018-04-07T12:56:43.020Z,3.47
2018-04-07T12:59:11.890Z,5.47
2018-04-07T13:01:40.748Z,4.27
2018-04-07T13:04:09.592Z,3.33
2018-04-07T13:06:38.476Z,5.33
2018-04-07T13:09:07.354Z,3.60
2018-04-07T13:11:36.224Z,4.63
2018-04-07T13:14:05.132Z,5.03
2018-04-07T13:16:34.026Z,4.63
2018-04-07T13:19:03.129Z,5.77
2018-04-07T13:21:31.982Z,7.33
2018-04-07T13:24:00.829Z,12.33
2018-04-07T13:26:31.332Z,4.13
2018-04-07T13:29:00.251Z,4.57
2018-04-07T13:31:29.094Z,5.80
2018-04-07T13:33:57.958Z,4.03
2018-04-07T13:36:26.850Z,4.53
2018-04-07T13:38:55.697Z,4.80
2018-04-07T13:41:24.537Z,2.60
2018-04-07T13:43:53.419Z,6.27
2018-04-07T13:46:23.126Z,3.63
2018-04-07T13:48:51.995Z,4.53
2018-04-07T13:51:20.861Z,5.17
2018-04-07T13:53:50.430Z,5.37
2018-04-07T13:56:19.659Z,5.23
2018-04-07T13:58:49.245Z,4.17
2018-04-07T14:01:18.121Z,2.73
2018-04-07T14:03:47.017Z,4.50
2018-04-07T14:06:15.875Z,6.77
2018-04-07T14:08:44.712Z,6.13
2018-04-07T14:11:13.554Z,5.33
2018-04-07T14:13:43.196Z,5.80
2018-04-07T14:16:12.032Z,3.80
2018-04-07T14:18:40.866Z,5.27
2018-04-07T14:21:09.751Z,4.57
2018-04-07T14:23:38.589Z,6.67
2018-04-07T14:26:07.431Z,7.37
2018-04-07T14:28:36.339Z,4.20
2018-04-07T14:31:06.046Z,5.93
2018-04-07T14:33:34.884Z,3.97
2018-04-07T14:36:03.777Z,7.53
2018-04-07T14:38:32.624Z,5.93
2018-04-07T14:41:01.492Z,4.97
2018-04-07T14:43:30.363Z,12.93
2018-04-07T14:45:59.228Z,5.83
2018-04-07T14:48:28.099Z,3.07
2018-04-07T14:50:56.977Z,5.30
2018-04-07T14:53:25.825Z,5.67
2018-04-07T14:55:55.539Z,5.90
2018-04-07T14:58:24.427Z,6.40
2018-04-07T15:00:53.314Z,4.97
2018-04-07T15:03:22.414Z,4.07
2018-04-07T15:05:51.432Z,6.60
2018-04-07T15:08:20.305Z,6.73
2018-04-07T15:10:49.157Z,5.67
2018-04-07T15:13:18.019Z,4.70
2018-04-07T15:15:46.881Z,5.90
2018-04-07T15:18:15.716Z,5.67
2018-04-07T15:20:44.571Z,7.17
2018-04-07T15:23:14.169Z,7.23
2018-04-07T15:25:46.937Z,6.10
2018-04-07T15:28:17.510Z,9.33
2018-04-07T15:30:46.449Z,6.03
2018-04-07T15:33:15.329Z,7.33
2018-04-07T15:35:44.180Z,4.83
2018-04-07T15:38:13.047Z,7.43
2018-04-07T15:40:41.883Z,4.43
2018-04-07T15:43:10.740Z,6.57
2018-04-07T15:45:39.586Z,6.07
2018-04-07T15:48:09.068Z,6.30
2018-04-07T15:50:38.680Z,7.10
2018-04-07T15:53:07.689Z,5.43
2018-04-07T15:55:37.519Z,6.43
2018-04-07T15:58:06.676Z,7.77
2018-04-07T16:00:35.520Z,8.40
2018-04-07T16:03:05.213Z,8.07
2018-04-07T16:05:35.821Z,4.83
2018-04-07T16:08:04.694Z,5.10
2018-04-07T16:10:33.573Z,4.70
2018-04-07T16:13:03.906Z,5.87
2018-04-07T16:15:32.791Z,6.07
2018-04-07T16:18:01.625Z,7.03
2018-04-07T16:20:30.464Z,5.17
2018-04-07T16:22:59.356Z,4.00
2018-04-07T16:25:28.533Z,5.47
2018-04-07T16:27:57.384Z,5.50
2018-04-07T16:30:26.272Z,5.93
2018-04-07T16:32:55.135Z,4.77
2018-04-07T16:35:24.019Z,4.57
2018-04-07T16:37:52.848Z,5.53
2018-04-07T16:40:24.227Z,5.73
2018-04-07T16:42:53.135Z,7.93
2018-04-07T16:45:23.220Z,4.43
2018-04-07T16:47:52.034Z,5.10
2018-04-07T16:50:20.908Z,4.77
2018-04-07T16:52:49.770Z,8.20
2018-04-07T16:55:18.700Z,7.47
2018-04-07T16:57:47.631Z,4.07
2018-04-07T17:00:16.464Z,4.93
2018-04-07T17:02:45.311Z,5.77
2018-04-07T17:05:14.452Z,7.67
2018-04-07T17:07:43.923Z,3.77
2018-04-07T17:10:12.795Z,4.67
2018-04-07T17:12:41.656Z,7.10
2018-04-07T17:15:11.440Z,6.03
2018-04-07T17:17:40.289Z,6.00
2018-04-07T17:20:09.143Z,5.23
2018-04-07T17:22:37.978Z,6.10
2018-04-07T17:25:06.819Z,7.30
2018-04-07T17:27:35.771Z,6.70
2018-04-07T17:30:04.611Z,4.63
2018-04-07T17:32:33.467Z,7.73
2018-04-07T17:35:02.387Z,7.70
2018-04-07T17:37:31.224Z,4.63
2018-04-07T17:40:00.059Z,5.03
2018-04-07T17:42:29.481Z,4.37
2018-04-07T17:44:58.315Z,4.77
2018-04-07T17:47:27.853Z,5.10
2018-04-07T17:49:56.715Z,9.00
2018-04-07T17:52:25.651Z,5.83
2018-04-07T17:54:54.484Z,7.53
2018-04-07T17:57:23.430Z,5.60
2018-04-07T17:59:52.270Z,7.17
2018-04-07T18:02:21.516Z,3.13
2018-04-07T18:04:50.908Z,7.13
2018-04-07T18:07:20.220Z,6.37
2018-04-07T18:09:49.858Z,5.27
2018-04-07T18:12:18.949Z,4.13
2018-04-07T18:14:48.527Z,7.43
2018-04-07T18:17:17.420Z,5.83
2018-04-07T18:19:46.508Z,6.33
2018-04-07T18:22:15.383Z,3.67
2018-04-07T18:24:44.812Z,5.97
2018-04-07T18:27:14.574Z,5.33
2018-04-07T18:29:44.041Z,5.53
2018-04-07T18:32:12.874Z,6.10
2018-04-07T18:34:41.714Z,6.70
2018-04-07T18:37:11.587Z,4.67
2018-04-07T18:39:40.443Z,4.90
2018-04-07T18:42:10.112Z,4.87
2018-04-07T18:44:40.156Z,5.57
2018-04-07T18:47:09.937Z,6.67
2018-04-07T18:49:38.844Z,9.77
2018-04-07T18:52:07.684Z,5.33
2018-04-07T18:54:36.560Z,5.10
2018-04-07T18:57:05.548Z,4.40
2018-04-07T18:59:34.505Z,6.87
2018-04-07T19:02:04.318Z,9.17
2018-04-07T19:04:33.224Z,5.80
2018-04-07T19:07:02.065Z,6.33
2018-04-07T19:09:31.092Z,4.83
2018-04-07T19:11:59.980Z,6.07
2018-04-07T19:14:29.910Z,5.30
2018-04-07T19:16:58.799Z,3.70
2018-04-07T19:19:27.636Z,4.87
2018-04-07T19:21:56.482Z,3.60
2018-04-07T19:24:25.829Z,4.93
2018-04-07T19:26:55.442Z,4.33
2018-04-07T19:29:24.299Z,4.77
2018-04-07T19:31:53.141Z,5.17
2018-04-07T19:34:21.983Z,4.60
2018-04-07T19:36:51.199Z,7.77
2018-04-07T19:39:20.051Z,6.77
2018-04-07T19:41:49.668Z,8.73
2018-04-07T19:44:18.533Z,5.10
2018-04-07T19:46:47.417Z,6.00
2018-04-07T19:49:16.319Z,7.93
2018-04-07T19:51:45.177Z,6.87
2018-04-07T19:54:14.039Z,6.20
2018-04-07T19:56:42.894Z,16.43
2018-04-07T19:59:11.740Z,6.53
2018-04-07T20:01:40.595Z,10.77
2018-04-07T20:04:09.923Z,8.07
2018-04-07T20:06:39.785Z,6.63
2018-04-07T20:09:08.597Z,7.60
2018-04-07T20:11:38.140Z,8.10
2018-04-07T20:14:07.024Z,8.63
2018-04-07T20:16:35.889Z,7.67
2018-04-07T20:19:04.807Z,11.90
2018-04-07T20:21:34.680Z,7.27
2018-04-07T20:24:03.885Z,14.00
2018-04-07T20:26:32.746Z,8.97
2018-04-07T20:29:02.300Z,12.57
2018-04-07T20:31:31.143Z,12.23
2018-04-07T20:33:59.999Z,13.83
2018-04-07T20:36:29.119Z,16.00
2018-04-07T20:38:57.980Z,15.23
2018-04-07T20:41:26.859Z,12.63
2018-04-07T20:43:55.713Z,15.57
2018-04-07T20:46:24.829Z,10.97
2018-04-07T20:48:54.433Z,13.30
2018-04-07T20:51:24.012Z,12.07
2018-04-07T20:53:52.863Z,15.73
2018-04-07T20:56:21.724Z,13.47
2018-04-07T20:58:51.146Z,11.03
2018-04-07T21:01:19.988Z,12.20
2018-04-07T21:03:49.748Z,14.37
2018-04-07T21:06:18.593Z,14.97
2018-04-07T21:08:47.438Z,11.60
2018-04-07T21:11:16.317Z,12.17
2018-04-07T21:13:45.204Z,11.77
2018-04-07T21:16:14.048Z,12.67
2018-04-07T21:18:43.564Z,12.97
2018-04-07T21:21:12.466Z,11.63
2018-04-07T21:23:41.298Z,12.70
2018-04-07T21:26:10.206Z,11.73
2018-04-07T21:28:39.052Z,11.57
2018-04-07T21:31:07.920Z,14.53
2018-04-07T21:33:36.794Z,21.93
2018-04-07T21:36:05.644Z,13.00
2018-04-07T21:38:34.484Z,15.33
2018-04-07T21:41:04.246Z,16.37
2018-04-07T21:43:33.056Z,15.57
2018-04-07T21:46:02.671Z,10.87
2018-04-07T21:48:31.558Z,12.87
2018-04-07T21:51:00.470Z,11.93
2018-04-07T21:53:30.136Z,14.53
2018-04-07T21:55:59.012Z,11.80
2018-04-07T21:58:27.868Z,12.20
2018-04-07T22:00:56.718Z,9.57
2018-04-07T22:05:59.494Z,8.63
2018-04-07T22:08:28.643Z,11.77
2018-04-07T22:10:57.999Z,9.67
2018-04-07T22:13:26.875Z,10.63
2018-04-07T22:15:55.731Z,9.53
2018-04-07T22:18:24.593Z,13.40
2018-04-07T22:20:53.459Z,12.47
2018-04-07T22:23:22.998Z,12.77
2018-04-07T22:25:51.871Z,13.20
2018-04-07T22:28:20.723Z,10.83
2018-04-07T22:30:51.082Z,14.97
2018-04-07T22:33:20.822Z,14.20
2018-04-07T22:35:51.501Z,10.73
2018-04-07T22:38:20.346Z,9.23
2018-04-07T22:40:49.194Z,9.90
2018-04-07T22:43:18.060Z,10.37
2018-04-07T22:45:46.922Z,9.30
2018-04-07T22:48:15.757Z,10.97
2018-04-07T22:50:44.715Z,9.77
2018-04-07T22:53:13.783Z,7.30
2018-04-07T22:55:43.703Z,7.50
2018-04-07T22:58:12.571Z,10.23
2018-04-07T23:00:41.945Z,10.83
2018-04-07T23:03:10.782Z,12.47
2018-04-07T23:05:39.644Z,11.93
2018-04-07T23:08:09.339Z,10.63
2018-04-07T23:10:38.225Z,11.20
2018-04-07T23:13:07.099Z,11.37
2018-04-07T23:15:35.944Z,11.13
2018-04-07T23:18:04.805Z,12.67
2018-04-07T23:20:33.669Z,11.67
2018-04-07T23:23:07.692Z,13.27
2018-04-07T23:25:36.553Z,12.40
2018-04-07T23:28:05.395Z,12.47
2018-04-07T23:30:34.261Z,10.03
2018-04-07T23:33:03.186Z,13.57
2018-04-07T23:35:32.561Z,11.23
2018-04-07T23:38:01.420Z,11.70
2018-04-07T23:40:30.314Z,11.03
2018-04-07T23:42:59.171Z,11.90
2018-04-07T23:45:28.009Z,12.00
2018-04-07T23:47:56.910Z,10.07
2018-04-07T23:50:25.754Z,8.63
2018-04-07T23:52:54.584Z,10.80
2018-04-07T23:55:23.449Z,9.23
2018-04-07T23:57:53.188Z,9.20
